Time;durP1;ratioP1;P1;durP2;ratioP2;P2;SDS_P1;SDS_P2;PMS_P1;PMS_P2;Temp;Humidity;BMP_temperature;BMP_pressure;BME280_temperature;BME280_humidity;BME280_pressure;Samples;Min_cycle;Max_cycle;Signal;HPM_P1;HPM_P2
2023/02/08 00:00:10;;;;;;;25.17;16.00;;;1.50;99.90;;;;;;5012657;28;20776;-72
2023/02/08 00:02:35;;;;;;;23.30;15.50;;;1.50;99.90;;;;;;5011265;28;20303;-72
2023/02/08 00:05:01;;;;;;;27.33;18.17;;;1.50;99.90;;;;;;5010210;28;20474;-71
2023/02/08 00:07:26;;;;;;;25.60;16.90;;;1.30;99.90;;;;;;5009510;28;20189;-72
2023/02/08 00:09:52;;;;;;;22.70;17.27;;;1.30;99.90;;;;;;5008018;28;20188;-71
2023/02/08 00:12:17;;;;;;;26.90;18.60;;;1.30;99.90;;;;;;5004680;28;20578;-71
2023/02/08 00:14:43;;;;;;;25.07;16.13;;;1.40;99.90;;;;;;5002311;28;20267;-71
2023/02/08 00:17:08;;;;;;;24.37;16.37;;;1.50;99.90;;;;;;5002233;28;20232;-72
2023/02/08 00:19:34;;;;;;;20.97;16.40;;;1.40;99.90;;;;;;5000181;28;20190;-70
2023/02/08 00:22:00;;;;;;;29.33;17.47;;;1.40;99.90;;;;;;5013473;28;20181;-70
2023/02/08 00:24:25;;;;;;;25.60;15.40;;;1.40;99.90;;;;;;4997831;28;20180;-70
2023/02/08 00:26:51;;;;;;;24.03;16.13;;;1.40;99.90;;;;;;5011651;28;20184;-70
2023/02/08 00:29:16;;;;;;;24.00;15.60;;;1.40;99.90;;;;;;5012410;28;20599;-69
2023/02/08 00:31:42;;;;;;;24.70;16.37;;;1.40;99.90;;;;;;5009352;28;20226;-70
2023/02/08 00:34:07;;;;;;;27.63;15.60;;;1.40;99.90;;;;;;4996780;28;20192;-69
2023/02/08 00:36:33;;;;;;;23.30;15.50;;;1.40;99.90;;;;;;5002559;28;20211;-71
2023/02/08 00:38:58;;;;;;;22.90;16.20;;;1.40;99.90;;;;;;5004507;28;20571;-70
2023/02/08 00:41:24;;;;;;;21.37;15.57;;;1.40;99.90;;;;;;5006164;28;20261;-70
2023/02/08 00:43:49;;;;;;;24.77;15.60;;;1.30;99.90;;;;;;5008192;28;20173;-70
2023/02/08 00:46:15;;;;;;;28.30;17.00;;;1.30;99.90;;;;;;5009645;28;20184;-69
2023/02/08 00:48:40;;;;;;;23.57;16.53;;;1.20;99.90;;;;;;5011239;28;20717;-70
2023/02/08 00:51:07;;;;;;;33.10;16.30;;;1.20;99.90;;;;;;5013394;28;20187;-70
2023/02/08 00:53:38;;;;;;;28.27;16.47;;;1.30;99.90;;;;;;5003216;28;20200;-69
2023/02/08 00:56:04;;;;;;;29.90;17.27;;;1.30;99.90;;;;;;4997365;28;20486;-69
2023/02/08 00:58:30;;;;;;;25.70;16.80;;;1.20;99.90;;;;;;4998129;28;20435;-69
2023/02/08 01:00:55;;;;;;;30.00;16.40;;;1.10;99.90;;;;;;5013095;28;20439;-69
2023/02/08 01:03:22;;;;;;;26.90;16.67;;;1.10;99.90;;;;;;5011266;28;20184;-69
2023/02/08 01:05:48;;;;;;;25.07;16.93;;;1.00;99.90;;;;;;5009778;28;20227;-69
2023/02/08 01:08:14;;;;;;;21.67;15.27;;;1.00;99.90;;;;;;5005189;28;20440;-69
2023/02/08 01:10:39;;;;;;;25.67;16.17;;;1.00;99.90;;;;;;5006726;28;20196;-69
2023/02/08 01:13:05;;;;;;;24.40;15.57;;;1.00;99.90;;;;;;5004540;28;20235;-69
2023/02/08 01:15:30;;;;;;;27.70;14.77;;;0.90;99.90;;;;;;5002465;28;20216;-69
2023/02/08 01:17:57;;;;;;;22.27;15.10;;;0.90;99.90;;;;;;5003940;28;20244;-70
2023/02/08 01:20:23;;;;;;;22.37;14.23;;;0.90;99.90;;;;;;4999114;28;20193;-70
2023/02/08 01:22:49;;;;;;;25.47;15.43;;;0.90;99.90;;;;;;4993663;28;20547;-70
2023/02/08 01:25:15;;;;;;;25.50;15.33;;;0.90;99.90;;;;;;4997899;28;20515;-70
2023/02/08 01:27:41;;;;;;;26.00;14.30;;;1.00;99.90;;;;;;4999331;28;20190;-70
2023/02/08 01:30:07;;;;;;;21.47;14.93;;;1.00;99.90;;;;;;5016154;28;20181;-70
2023/02/08 01:32:33;;;;;;;27.13;16.17;;;1.10;99.90;;;;;;5002439;28;20484;-72
2023/02/08 01:34:58;;;;;;;26.17;15.70;;;1.20;99.90;;;;;;5004210;28;20471;-71
2023/02/08 01:37:24;;;;;;;26.00;15.53;;;1.10;99.90;;;;;;5004964;28;20183;-70
2023/02/08 01:39:49;;;;;;;21.43;14.07;;;1.10;99.90;;;;;;5006944;28;20185;-69
2023/02/08 01:42:17;;;;;;;22.87;14.80;;;1.00;99.90;;;;;;5002704;28;20216;-69
2023/02/08 01:45:22;;;;;;;26.13;16.33;;;1.00;99.90;;;;;;4997849;28;20185;-69
2023/02/08 01:48:00;;;;;;;27.10;14.93;;;0.90;99.90;;;;;;4998477;28;20428;-70
2023/02/08 01:50:31;;;;;;;29.97;16.97;;;0.90;99.90;;;;;;4993006;28;20436;-70
2023/02/08 01:52:57;;;;;;;26.10;14.73;;;0.90;99.90;;;;;;4997617;28;20482;-73
2023/02/08 01:55:33;;;;;;;22.43;15.20;;;0.90;99.90;;;;;;4998872;28;21037;-70
2023/02/08 01:58:03;;;;;;;23.67;16.13;;;0.90;99.90;;;;;;4999608;28;20508;-70
2023/02/08 02:00:31;;;;;;;23.00;14.93;;;0.90;99.90;;;;;;5007078;28;20522;-70
2023/02/08 02:02:57;;;;;;;27.43;15.00;;;0.80;99.90;;;;;;5007087;28;20490;-70
2023/02/08 02:05:28;;;;;;;26.70;14.97;;;0.70;99.90;;;;;;5004949;28;20431;-70
2023/02/08 02:07:56;;;;;;;28.40;15.00;;;0.70;99.90;;;;;;5006735;28;20439;-71
2023/02/08 02:10:31;;;;;;;25.53;14.93;;;0.70;99.90;;;;;;5009295;28;20427;-70
2023/02/08 02:13:05;;;;;;;25.43;15.73;;;0.80;99.90;;;;;;4997035;28;20425;-69
2023/02/08 02:15:31;;;;;;;24.37;15.60;;;0.70;99.90;;;;;;4997588;28;20492;-68
2023/02/08 02:17:57;;;;;;;23.17;14.40;;;0.70;99.90;;;;;;4996362;28;20424;-69
2023/02/08 02:20:48;;;;;;;22.67;14.83;;;0.70;99.90;;;;;;4996963;28;20436;-69
2023/02/08 02:23:51;;;;;;;20.03;14.20;;;0.80;99.90;;;;;;4998914;28;20181;-69
2023/02/08 02:26:54;;;;;;;21.37;14.73;;;0.80;99.90;;;;;;5002271;28;20443;-69
2023/02/08 02:29:55;;;;;;;25.27;14.83;;;0.80;99.90;;;;;;5005006;28;20431;-71
2023/02/08 02:32:33;;;;;;;24.53;15.13;;;0.90;99.90;;;;;;5003242;28;20525;-72
2023/02/08 02:35:32;;;;;;;22.93;12.80;;;0.90;99.90;;;;;;5005764;28;22415;-72
2023/02/08 02:38:40;;;;;;;17.03;12.77;;;1.00;99.90;;;;;;5001731;28;20498;-73
2023/02/08 02:44:36;;;;;;;24.90;14.53;;;0.90;99.90;;;;;;5014874;28;20550;-70
2023/02/08 02:47:11;;;;;;;23.00;15.03;;;1.00;99.90;;;;;;5013550;28;20443;-72
2023/02/08 02:50:05;;;;;;;22.43;14.10;;;1.00;99.90;;;;;;4995635;28;20907;-73
2023/02/08 02:52:45;;;;;;;19.97;13.03;;;1.00;99.90;;;;;;5000721;28;20775;-72
2023/02/08 02:55:15;;;;;;;20.90;12.77;;;1.00;99.90;;;;;;5002865;28;20862;-73
2023/02/08 02:57:43;;;;;;;22.63;12.53;;;1.10;99.90;;;;;;5002862;28;20436;-70
2023/02/08 03:00:10;;;;;;;23.13;13.83;;;1.10;99.90;;;;;;5003725;28;20522;-71
2023/02/08 03:02:36;;;;;;;21.07;13.50;;;1.10;99.90;;;;;;5001920;28;20439;-71
2023/02/08 03:05:04;;;;;;;16.90;12.20;;;1.00;99.90;;;;;;4999186;28;20438;-71
2023/02/08 03:07:30;;;;;;;17.50;13.60;;;1.10;99.90;;;;;;4995274;28;20432;-71
2023/02/08 03:10:23;;;;;;;19.30;11.63;;;1.30;99.90;;;;;;4996624;28;20432;-71
2023/02/08 03:13:10;;;;;;;18.17;12.57;;;1.30;99.90;;;;;;4993723;28;20177;-69
2023/02/08 03:15:48;;;;;;;20.57;12.40;;;1.40;99.90;;;;;;5011389;28;20817;-70
2023/02/08 03:18:14;;;;;;;17.63;11.17;;;1.40;99.90;;;;;;4996436;28;20428;-68
2023/02/08 03:20:52;;;;;;;17.40;11.63;;;1.40;99.90;;;;;;4999668;28;20435;-69
2023/02/08 03:23:26;;;;;;;17.80;12.10;;;1.50;99.90;;;;;;5021026;28;20235;-69
2023/02/08 03:26:04;;;;;;;16.97;11.03;;;1.60;99.90;;;;;;5002144;28;20423;-69
2023/02/08 03:28:55;;;;;;;17.90;11.50;;;1.60;99.90;;;;;;5001078;28;20494;-69
2023/02/08 03:31:44;;;;;;;20.80;13.10;;;1.50;99.90;;;;;;5001007;28;20877;-69
2023/02/08 03:34:18;;;;;;;18.03;12.40;;;1.40;99.90;;;;;;4995778;28;20442;-69
2023/02/08 03:37:09;;;;;;;18.67;10.93;;;1.30;99.90;;;;;;4996824;28;20530;-69
2023/02/08 03:39:37;;;;;;;23.17;13.53;;;1.30;99.90;;;;;;4994625;28;21005;-68
2023/02/08 05:32:46;;;;;;;22.80;13.10;;;0.50;99.90;;;;;;4973287;28;21033;-71
2023/02/08 05:35:11;;;;;;;25.80;14.17;;;0.40;99.90;;;;;;4976693;28;20469;-69
2023/02/08 05:37:37;;;;;;;19.97;12.67;;;0.40;99.90;;;;;;4976866;28;20196;-72
2023/02/08 05:40:03;;;;;;;17.63;10.73;;;0.30;99.90;;;;;;4976556;28;20189;-70
2023/02/08 05:42:28;;;;;;;22.43;12.67;;;0.20;99.90;;;;;;4976778;28;20556;-72
2023/02/08 05:44:54;;;;;;;23.03;13.03;;;0.20;99.90;;;;;;4976822;28;20573;-71
2023/02/08 05:47:19;;;;;;;20.27;12.50;;;0.30;99.90;;;;;;4976094;28;20279;-74
2023/02/08 05:49:45;;;;;;;18.83;11.80;;;0.30;99.90;;;;;;4958303;28;20189;-71
2023/02/08 05:52:10;;;;;;;19.13;13.60;;;0.40;99.90;;;;;;4974887;28;20282;-70
2023/02/08 05:54:36;;;;;;;24.27;13.67;;;0.40;99.90;;;;;;4974628;28;20193;-71
2023/02/08 05:57:01;;;;;;;21.27;12.37;;;0.50;99.90;;;;;;4972974;28;20252;-71
2023/02/08 05:59:27;;;;;;;17.27;12.17;;;0.50;99.90;;;;;;4974927;28;20284;-72
2023/02/08 06:01:53;;;;;;;24.07;13.30;;;0.50;99.90;;;;;;4975616;28;20213;-71
2023/02/08 06:04:18;;;;;;;20.53;11.60;;;0.50;99.90;;;;;;4975055;28;20574;-71
2023/02/08 06:06:44;;;;;;;15.80;11.30;;;0.40;99.90;;;;;;4973768;28;20192;-70
2023/02/08 06:09:09;;;;;;;22.03;13.13;;;0.40;99.90;;;;;;4975646;28;20208;-71
2023/02/08 06:11:35;;;;;;;21.67;12.10;;;0.30;99.90;;;;;;4975560;28;20192;-71
2023/02/08 06:14:02;;;;;;;20.40;12.40;;;0.40;99.90;;;;;;4974571;28;20517;-71
2023/02/08 06:16:27;;;;;;;19.87;12.57;;;0.30;99.90;;;;;;4974837;28;20220;-71
2023/02/08 06:18:53;;;;;;;17.20;11.10;;;0.20;99.90;;;;;;4975384;28;20437;-70
2023/02/08 06:21:19;;;;;;;16.37;10.60;;;0.30;99.90;;;;;;4974671;28;20194;-70
2023/02/08 06:23:44;;;;;;;17.10;12.33;;;0.20;99.90;;;;;;4975055;28;20430;-71
2023/02/08 06:26:10;;;;;;;17.07;12.30;;;0.30;99.90;;;;;;4973173;28;20544;-71
2023/02/08 06:28:35;;;;;;;21.30;11.70;;;0.20;99.90;;;;;;4972265;28;20600;-71
2023/02/08 06:31:01;;;;;;;15.50;11.20;;;0.20;99.90;;;;;;4973820;28;20226;-70
2023/02/08 06:33:26;;;;;;;26.13;12.90;;;0.20;99.90;;;;;;4961597;28;20178;-70
2023/02/08 06:35:52;;;;;;;13.20;10.33;;;0.20;99.90;;;;;;4967648;28;20271;-70
2023/02/08 06:38:19;;;;;;;14.60;11.00;;;0.10;99.90;;;;;;4975339;28;20232;-70
2023/02/08 06:40:48;;;;;;;26.87;13.73;;;0.20;99.90;;;;;;4975107;28;20980;-70
2023/02/08 06:43:15;;;;;;;16.17;11.50;;;0.20;99.90;;;;;;4974620;28;20433;-70
2023/02/08 06:45:42;;;;;;;19.37;12.17;;;0.30;99.90;;;;;;4975580;28;20440;-70
2023/02/08 06:48:08;;;;;;;18.53;11.53;;;0.20;99.90;;;;;;4973493;28;20449;-71
2023/02/08 06:50:33;;;;;;;19.27;11.30;;;0.20;99.90;;;;;;4975262;28;20432;-72
2023/02/08 06:52:59;;;;;;;19.33;13.27;;;0.10;99.90;;;;;;4975257;28;20315;-70
2023/02/08 06:55:24;;;;;;;19.83;13.50;;;0.10;99.90;;;;;;4974818;28;20300;-70
2023/02/08 06:57:53;;;;;;;18.87;11.53;;;0.10;99.90;;;;;;4975022;28;20268;-69
2023/02/08 07:00:19;;;;;;;28.53;12.50;;;0.10;99.90;;;;;;4974873;28;20261;-70
2023/02/08 07:02:46;;;;;;;24.20;14.20;;;0.10;99.90;;;;;;4975007;28;20469;-70
2023/02/08 07:05:12;;;;;;;19.40;13.53;;;0.20;99.90;;;;;;4974578;28;20182;-70
2023/02/08 07:07:38;;;;;;;21.57;13.90;;;0.30;99.90;;;;;;4960631;28;21051;-69
2023/02/08 07:10:04;;;;;;;16.43;10.70;;;0.30;99.90;;;;;;4973882;28;20421;-71
2023/02/08 07:12:32;;;;;;;21.57;12.03;;;0.30;99.90;;;;;;4973746;28;20177;-71
2023/02/08 07:14:58;;;;;;;17.70;12.80;;;0.20;99.90;;;;;;4970994;28;20429;-71
2023/02/08 07:17:23;;;;;;;21.40;15.20;;;0.20;99.90;;;;;;4973901;28;20541;-71
2023/02/08 07:19:49;;;;;;;20.50;12.10;;;0.20;99.90;;;;;;4974364;28;20214;-71
2023/02/08 07:22:15;;;;;;;15.27;11.97;;;0.20;99.90;;;;;;4973399;28;20265;-71
2023/02/08 07:24:41;;;;;;;18.87;12.03;;;0.20;99.90;;;;;;4972202;28;20430;-71
2023/02/08 07:27:08;;;;;;;20.37;11.93;;;0.30;99.90;;;;;;4973898;28;20232;-70
2023/02/08 07:29:34;;;;;;;17.30;12.27;;;0.20;99.90;;;;;;4972846;28;20188;-70
2023/02/08 07:32:01;;;;;;;19.10;12.80;;;0.30;99.90;;;;;;4973122;28;20477;-70
2023/02/08 07:34:33;;;;;;;13.77;11.43;;;0.30;99.90;;;;;;4971820;28;20483;-70
2023/02/08 07:36:58;;;;;;;15.30;11.13;;;0.30;99.90;;;;;;4972340;28;20481;-70
2023/02/08 07:39:24;;;;;;;19.60;13.30;;;0.30;99.90;;;;;;4973685;28;20452;-70
2023/02/08 07:41:50;;;;;;;18.80;11.87;;;0.40;99.90;;;;;;4969811;28;20190;-71
2023/02/08 07:44:15;;;;;;;27.83;13.93;;;0.40;99.90;;;;;;4973486;28;20487;-70
2023/02/08 07:46:41;;;;;;;17.07;12.20;;;0.40;99.90;;;;;;4973542;28;20182;-70
2023/02/08 07:49:07;;;;;;;24.20;12.63;;;0.50;99.90;;;;;;4973549;28;20181;-70
2023/02/08 07:51:32;;;;;;;16.77;12.30;;;0.50;99.90;;;;;;4959256;28;20194;-71
2023/02/08 07:53:58;;;;;;;17.27;12.60;;;0.60;99.90;;;;;;4972202;28;20591;-71
2023/02/08 07:56:23;;;;;;;21.53;13.73;;;0.60;99.90;;;;;;4971478;28;20210;-71
2023/02/08 07:58:49;;;;;;;19.83;11.33;;;0.70;99.90;;;;;;4971584;28;20190;-71
2023/02/08 08:01:14;;;;;;;19.83;12.30;;;0.90;99.90;;;;;;4971534;28;20195;-70
2023/02/08 08:03:40;;;;;;;21.70;12.67;;;1.10;99.90;;;;;;4972089;28;20181;-70
2023/02/08 08:06:05;;;;;;;16.67;11.80;;;1.30;99.90;;;;;;4971969;28;20193;-71
2023/02/08 08:08:31;;;;;;;23.37;12.43;;;1.50;99.90;;;;;;4972773;28;20190;-70
2023/02/08 08:10:57;;;;;;;19.00;11.80;;;1.70;99.90;;;;;;4974444;28;20189;-70
2023/02/08 08:13:25;;;;;;;18.20;12.90;;;1.80;99.90;;;;;;4973786;28;20189;-71
2023/02/08 08:15:51;;;;;;;16.43;10.97;;;2.00;99.90;;;;;;4974264;28;20227;-70
2023/02/08 08:18:16;;;;;;;18.80;12.53;;;2.10;99.90;;;;;;4973956;28;20835;-71
2023/02/08 08:20:42;;;;;;;20.73;11.93;;;2.30;99.90;;;;;;4974093;28;20201;-70
2023/02/08 08:23:08;;;;;;;17.37;10.50;;;2.50;99.90;;;;;;4973954;28;20186;-70
2023/02/08 08:25:33;;;;;;;24.20;13.30;;;2.60;99.90;;;;;;4945860;28;20207;-70
2023/02/08 08:28:00;;;;;;;17.90;11.50;;;2.80;99.90;;;;;;4974017;28;20185;-70
2023/02/08 08:30:26;;;;;;;15.00;11.80;;;2.80;99.90;;;;;;4972353;28;20183;-70
2023/02/08 08:32:51;;;;;;;17.70;12.40;;;2.90;99.90;;;;;;4964425;28;20480;-70
2023/02/08 08:35:17;;;;;;;18.10;12.47;;;3.00;99.90;;;;;;4973830;28;20214;-70
2023/02/08 08:37:43;;;;;;;22.00;14.10;;;3.10;99.90;;;;;;4973981;28;20248;-70
2023/02/08 08:40:09;;;;;;;18.20;12.33;;;3.20;99.90;;;;;;4970319;28;20219;-69
2023/02/08 08:42:38;;;;;;;27.33;13.83;;;3.30;99.90;;;;;;4973746;28;20196;-70
2023/02/08 08:45:05;;;;;;;20.13;13.87;;;3.30;99.90;;;;;;4973918;28;20784;-70
2023/02/08 08:47:31;;;;;;;19.57;12.23;;;3.40;99.90;;;;;;4973634;28;20451;-70
2023/02/08 08:49:56;;;;;;;19.43;12.50;;;3.60;99.90;;;;;;4972544;28;20435;-70
2023/02/08 08:52:22;;;;;;;15.57;11.33;;;3.70;99.90;;;;;;4973684;28;20607;-69
2023/02/08 08:54:47;;;;;;;20.60;12.70;;;3.90;99.90;;;;;;4973705;28;20243;-70
2023/02/08 08:57:13;;;;;;;22.53;10.77;;;4.00;99.90;;;;;;4976789;28;20225;-69
2023/02/08 08:59:38;;;;;;;19.80;11.47;;;4.10;99.90;;;;;;4977495;28;20587;-69
2023/02/08 09:02:04;;;;;;;17.93;11.97;;;4.30;99.90;;;;;;4977489;28;20707;-69
2023/02/08 09:04:29;;;;;;;21.10;13.10;;;4.40;99.90;;;;;;4977425;28;20184;-70
2023/02/08 09:06:55;;;;;;;19.13;11.20;;;4.50;99.90;;;;;;4977285;28;20216;-69
2023/02/08 09:09:21;;;;;;;28.63;13.73;;;4.60;99.90;;;;;;4977558;28;20189;-69
2023/02/08 09:11:47;;;;;;;19.47;12.73;;;4.60;99.90;;;;;;4977303;28;20201;-70
2023/02/08 09:14:13;;;;;;;15.07;12.20;;;4.70;99.90;;;;;;4977395;28;20463;-70
2023/02/08 09:16:46;;;;;;;19.00;10.63;;;4.70;99.90;;;;;;4977200;28;20481;-69
2023/02/08 09:19:13;;;;;;;16.90;9.70;;;4.80;99.90;;;;;;4976514;28;20528;-71
2023/02/08 09:21:39;;;;;;;12.30;8.83;;;4.90;99.90;;;;;;4976955;28;20511;-70
2023/02/08 09:24:05;;;;;;;15.20;9.77;;;5.00;99.90;;;;;;4977257;28;20441;-70
2023/02/08 09:26:30;;;;;;;17.80;8.43;;;5.20;99.90;;;;;;4976979;28;20492;-70
2023/02/08 09:28:57;;;;;;;14.53;9.33;;;5.40;99.90;;;;;;4976945;28;20600;-70
2023/02/08 09:31:29;;;;;;;17.37;10.20;;;5.60;99.90;;;;;;4976924;28;20280;-70
2023/02/08 09:33:57;;;;;;;16.33;9.87;;;5.70;99.90;;;;;;4973213;28;20432;-70
2023/02/08 09:36:24;;;;;;;9.77;6.33;;;5.80;99.90;;;;;;4976853;28;20472;-70
2023/02/08 09:38:56;;;;;;;9.30;6.60;;;6.00;98.60;;;;;;4976752;28;20421;-70
2023/02/08 09:41:41;;;;;;;9.03;7.03;;;6.10;93.70;;;;;;4976948;28;20437;-70
2023/02/08 09:44:27;;;;;;;9.37;6.87;;;6.30;92.60;;;;;;4976850;28;20480;-70
2023/02/08 09:47:10;;;;;;;12.70;6.30;;;6.50;96.30;;;;;;4976393;28;20523;-70
2023/02/08 09:49:42;;;;;;;9.40;6.47;;;6.60;94.90;;;;;;4976530;28;20433;-70
2023/02/08 09:52:15;;;;;;;10.73;7.10;;;6.70;84.30;;;;;;4976729;28;20849;-70
2023/02/08 09:54:45;;;;;;;9.80;6.60;;;6.70;81.50;;;;;;4976740;28;20492;-70
2023/02/08 09:57:17;;;;;;;8.50;5.40;;;6.80;75.60;;;;;;4976142;28;20828;-70
2023/02/08 10:00:11;;;;;;;11.70;7.00;;;6.90;77.50;;;;;;4974371;28;20479;-70
2023/02/08 10:02:40;;;;;;;10.10;5.93;;;6.90;68.10;;;;;;4975204;28;20449;-70
2023/02/08 10:05:12;;;;;;;8.87;5.60;;;6.90;65.50;;;;;;4975192;28;20988;-70
2023/02/08 10:07:39;;;;;;;7.30;5.33;;;7.00;61.10;;;;;;4975115;28;20443;-70
2023/02/08 10:10:12;;;;;;;6.20;4.40;;;7.00;57.60;;;;;;4958016;28;20511;-70
2023/02/08 10:13:18;;;;;;;6.33;4.90;;;7.10;53.40;;;;;;4973861;28;20433;-70
2023/02/08 10:15:50;;;;;;;7.43;4.43;;;7.10;56.10;;;;;;4869406;29;20496;-70
2023/02/08 10:18:35;;;;;;;6.20;4.03;;;7.10;53.80;;;;;;4962853;28;20483;-70
2023/02/08 10:21:12;;;;;;;7.93;4.53;;;7.10;51.20;;;;;;4976066;28;20863;-70
2023/02/08 10:23:41;;;;;;;6.20;4.20;;;7.10;50.30;;;;;;4976280;28;20544;-70
2023/02/08 10:26:22;;;;;;;5.40;4.60;;;7.10;50.50;;;;;;4976000;28;20433;-70
2023/02/08 10:29:20;;;;;;;5.97;4.30;;;7.10;49.10;;;;;;4975979;28;20429;-70
2023/02/08 10:31:48;;;;;;;5.87;3.83;;;7.10;50.50;;;;;;4975753;28;20538;-71
2023/02/08 10:34:29;;;;;;;3.93;3.07;;;7.20;48.40;;;;;;4975801;28;20460;-70
2023/02/08 10:36:55;;;;;;;12.77;3.87;;;7.20;46.80;;;;;;4975759;28;20567;-70
2023/02/08 10:39:28;;;;;;;9.67;3.87;;;7.20;47.30;;;;;;4975675;28;20900;-70
2023/02/08 10:41:54;;;;;;;6.27;4.50;;;7.30;44.10;;;;;;4975705;28;20193;-70
2023/02/08 10:44:41;;;;;;;5.27;3.57;;;7.30;43.80;;;;;;4975628;28;20429;-70
2023/02/08 10:47:28;;;;;;;8.20;3.47;;;7.30;45.40;;;;;;4973674;28;20525;-70
2023/02/08 10:50:14;;;;;;;4.80;3.60;;;7.40;42.90;;;;;;4974365;28;20790;-70
2023/02/08 10:52:40;;;;;;;6.67;3.80;;;7.40;42.90;;;;;;4974560;28;20421;-70
2023/02/08 10:55:15;;;;;;;11.40;4.10;;;7.40;44.90;;;;;;4975599;28;20799;-71
2023/02/08 10:57:42;;;;;;;8.80;3.70;;;7.40;44.50;;;;;;4975570;28;20432;-70
2023/02/08 11:00:21;;;;;;;4.23;3.20;;;7.50;45.50;;;;;;4975534;28;20515;-70
2023/02/08 11:02:59;;;;;;;5.20;3.93;;;7.60;44.00;;;;;;4975488;28;20456;-70
2023/02/08 11:05:25;;;;;;;5.43;3.60;;;7.70;44.20;;;;;;4972787;28;20793;-71
2023/02/08 11:08:10;;;;;;;5.13;4.07;;;7.70;44.30;;;;;;4975289;28;20436;-70
2023/02/08 11:10:38;;;;;;;4.80;3.50;;;7.70;42.50;;;;;;4956824;28;20192;-70
2023/02/08 11:13:05;;;;;;;6.57;3.17;;;7.90;42.70;;;;;;4975321;28;20468;-71
2023/02/08 11:15:50;;;;;;;11.33;3.17;;;8.00;44.30;;;;;;4957633;28;20968;-70
2023/02/08 11:18:38;;;;;;;4.10;3.00;;;8.20;45.50;;;;;;4974741;28;20805;-70
2023/02/08 11:21:05;;;;;;;5.07;3.10;;;8.40;41.90;;;;;;4975077;28;20421;-70
2023/02/08 11:23:36;;;;;;;3.80;2.93;;;8.40;42.90;;;;;;4974893;28;20432;-70
2023/02/08 11:26:37;;;;;;;3.50;3.20;;;8.50;43.50;;;;;;4974902;28;20499;-70
2023/02/08 11:29:14;;;;;;;5.07;3.70;;;8.50;39.50;;;;;;4974812;28;20488;-70
2023/02/08 11:32:12;;;;;;;3.67;3.30;;;8.70;39.10;;;;;;4972727;28;20472;-70
2023/02/08 11:34:38;;;;;;;4.37;3.20;;;8.70;39.30;;;;;;4973467;28;20441;-70
2023/02/08 11:37:27;;;;;;;7.30;3.23;;;8.70;39.60;;;;;;4974617;28;20483;-70
2023/02/08 11:39:55;;;;;;;3.00;2.70;;;8.80;41.20;;;;;;4973662;28;20425;-70
2023/02/08 11:42:26;;;;;;;4.20;3.03;;;8.90;41.90;;;;;;4974676;28;20853;-70
2023/02/08 11:44:54;;;;;;;5.87;3.67;;;9.10;41.10;;;;;;4972819;28;20441;-70
2023/02/08 11:47:29;;;;;;;3.90;2.73;;;9.20;39.90;;;;;;4974702;28;20826;-70
2023/02/08 11:49:57;;;;;;;4.70;3.23;;;9.20;39.70;;;;;;4975325;28;20790;-70
2023/02/08 11:52:30;;;;;;;4.07;3.23;;;9.40;39.50;;;;;;4974799;28;20449;-70
2023/02/08 11:55:15;;;;;;;5.00;3.60;;;9.50;39.50;;;;;;4974841;28;20816;-70
2023/02/08 11:58:16;;;;;;;4.63;3.40;;;9.70;40.70;;;;;;4971204;28;21142;-70
2023/02/08 12:01:00;;;;;;;3.93;3.53;;;9.80;39.50;;;;;;4972416;28;20444;-70
2023/02/08 12:03:36;;;;;;;5.77;3.53;;;10.10;36.60;;;;;;4973618;28;20819;-70
2023/02/08 12:06:41;;;;;;;9.37;3.13;;;10.40;34.80;;;;;;4973046;28;20440;-69
2023/02/08 12:09:22;;;;;;;4.70;2.97;;;10.60;33.90;;;;;;4972811;28;20472;-70
2023/02/08 12:11:53;;;;;;;6.63;3.20;;;10.80;32.00;;;;;;4973589;28;20437;-70
2023/02/08 12:14:39;;;;;;;2.80;2.40;;;10.90;31.20;;;;;;4971737;28;20465;-70
2023/02/08 12:17:29;;;;;;;3.43;2.60;;;11.10;30.10;;;;;;4973672;28;20477;-70
2023/02/08 12:20:16;;;;;;;3.93;2.73;;;11.10;30.30;;;;;;4973667;28;20948;-70
2023/02/08 12:22:53;;;;;;;5.87;3.07;;;11.10;32.40;;;;;;4972915;28;20841;-70
2023/02/08 12:25:21;;;;;;;3.77;2.87;;;11.00;30.10;;;;;;4970796;28;20432;-70
2023/02/08 12:28:05;;;;;;;4.80;3.00;;;10.90;30.30;;;;;;4973857;28;20528;-70
2023/02/08 12:30:42;;;;;;;9.13;3.30;;;10.90;30.30;;;;;;4972003;28;20480;-71
2023/02/08 12:33:28;;;;;;;4.40;2.50;;;10.80;31.50;;;;;;4972532;28;20484;-70
2023/02/08 12:36:38;;;;;;;3.17;2.50;;;10.80;31.50;;;;;;4973535;28;20471;-70
2023/02/08 12:42:26;;;;;;;5.03;3.00;;;11.10;31.80;;;;;;4973946;28;20480;-70
2023/02/08 12:45:16;;;;;;;4.33;2.90;;;11.10;33.50;;;;;;4971702;28;20429;-70
2023/02/08 12:47:57;;;;;;;3.50;2.03;;;11.10;32.20;;;;;;4973633;28;20425;-70
2023/02/08 12:50:44;;;;;;;5.77;3.13;;;11.10;30.20;;;;;;4973729;28;20472;-70
2023/02/08 12:53:29;;;;;;;4.37;3.20;;;11.10;32.50;;;;;;4973701;28;20932;-70
2023/02/08 12:56:00;;;;;;;16.00;5.07;;;11.10;32.20;;;;;;4971822;28;20555;-71
2023/02/08 12:58:26;;;;;;;6.40;3.97;;;11.10;34.00;;;;;;4974044;28;20572;-71
2023/02/08 13:01:13;;;;;;;4.70;4.03;;;11.10;34.80;;;;;;4973975;28;20464;-71
2023/02/08 13:03:46;;;;;;;4.37;3.33;;;11.00;32.60;;;;;;4973027;28;20265;-70
2023/02/08 13:06:17;;;;;;;3.40;3.10;;;11.00;33.80;;;;;;4951319;28;20441;-71
2023/02/08 13:08:49;;;;;;;9.57;5.90;;;11.00;34.30;;;;;;4973941;28;20572;-70
2023/02/08 13:11:28;;;;;;;6.70;3.50;;;11.10;35.30;;;;;;4973744;28;20449;-70
2023/02/08 13:14:06;;;;;;;3.33;3.03;;;11.10;32.60;;;;;;4973428;28;20432;-71
2023/02/08 13:16:38;;;;;;;4.10;2.90;;;11.10;32.20;;;;;;4973551;28;20530;-70
2023/02/08 13:19:10;;;;;;;5.73;3.03;;;11.10;32.60;;;;;;4970356;28;20542;-70
2023/02/08 13:21:40;;;;;;;4.20;3.80;;;11.10;34.60;;;;;;4973375;28;20429;-70
2023/02/08 13:24:19;;;;;;;5.80;4.23;;;11.20;33.50;;;;;;4973822;28;20418;-70
2023/02/08 13:26:45;;;;;;;3.77;2.97;;;11.10;32.60;;;;;;4973382;28;20447;-71
2023/02/08 13:29:17;;;;;;;6.63;3.80;;;11.10;35.90;;;;;;4973482;28;20433;-71
2023/02/08 13:31:49;;;;;;;3.90;3.50;;;11.10;33.70;;;;;;4972393;28;20263;-70
2023/02/08 13:34:23;;;;;;;5.87;3.80;;;11.10;32.90;;;;;;4970900;28;20452;-70
2023/02/08 13:36:58;;;;;;;4.60;3.30;;;11.20;33.50;;;;;;4973303;28;20580;-71
2023/02/08 13:39:42;;;;;;;7.13;3.90;;;11.30;34.70;;;;;;4973403;28;20429;-71
2023/02/08 13:42:19;;;;;;;10.20;3.57;;;11.50;34.70;;;;;;4974679;28;20452;-70
2023/02/08 13:44:52;;;;;;;8.27;4.87;;;11.70;35.60;;;;;;4973440;28;20483;-70
2023/02/08 13:47:27;;;;;;;4.30;3.57;;;11.70;33.70;;;;;;4976718;28;20940;-70
2023/02/08 13:50:03;;;;;;;10.17;4.13;;;11.70;34.20;;;;;;4976825;28;20428;-70
2023/02/08 13:52:31;;;;;;;4.97;3.80;;;11.60;33.70;;;;;;4974381;28;20464;-71
2023/02/08 13:55:30;;;;;;;8.00;4.43;;;11.50;36.40;;;;;;4976393;28;20493;-70
2023/02/08 13:58:12;;;;;;;5.27;3.77;;;11.40;34.90;;;;;;4975899;28;20453;-71
2023/02/08 14:01:01;;;;;;;8.30;3.20;;;11.40;33.30;;;;;;4976150;28;20430;-70
2023/02/08 14:03:29;;;;;;;6.20;3.63;;;11.20;34.90;;;;;;4976265;28;20436;-70
2023/02/08 14:05:56;;;;;;;7.13;4.70;;;11.10;35.40;;;;;;4976320;28;20457;-71
2023/02/08 14:08:35;;;;;;;5.53;3.77;;;11.00;34.50;;;;;;4976238;28;20525;-70
2023/02/08 14:11:06;;;;;;;5.80;3.93;;;10.80;35.00;;;;;;4976234;28;20531;-70
2023/02/08 14:13:36;;;;;;;8.90;4.40;;;10.70;38.10;;;;;;4976263;28;20520;-70
2023/02/08 14:16:21;;;;;;;5.23;4.60;;;10.60;35.90;;;;;;4958849;28;20475;-70
2023/02/08 14:18:55;;;;;;;6.50;3.80;;;10.40;36.30;;;;;;4976395;28;20429;-70
2023/02/08 14:21:31;;;;;;;9.97;4.67;;;10.30;36.70;;;;;;4974704;28;21003;-71
2023/02/08 14:24:23;;;;;;;9.83;5.90;;;10.10;37.40;;;;;;4976346;28;20428;-70
2023/02/08 14:26:50;;;;;;;8.10;4.03;;;10.00;38.20;;;;;;4975614;28;20473;-70
2023/02/08 14:29:26;;;;;;;5.33;3.53;;;9.90;39.50;;;;;;4975922;28;20425;-71
2023/02/08 14:31:52;;;;;;;8.47;3.37;;;9.90;37.30;;;;;;4973080;28;20498;-70
2023/02/08 14:34:39;;;;;;;6.97;4.10;;;9.80;37.80;;;;;;4975804;28;20524;-70
2023/02/08 14:37:24;;;;;;;7.67;4.70;;;9.90;39.00;;;;;;4958288;28;20972;-69
2023/02/08 14:40:15;;;;;;;7.37;4.00;;;9.80;39.30;;;;;;4975629;28;20524;-70
2023/02/08 14:43:03;;;;;;;5.90;4.30;;;9.60;39.70;;;;;;4975568;28;20520;-70
2023/02/08 14:45:37;;;;;;;5.80;3.47;;;9.50;41.20;;;;;;4974452;28;20465;-70
2023/02/08 14:48:23;;;;;;;8.53;4.73;;;9.50;40.10;;;;;;4957077;28;20484;-71
2023/02/08 14:50:54;;;;;;;7.63;4.17;;;9.40;41.00;;;;;;4973899;28;20441;-70
2023/02/08 14:53:25;;;;;;;6.80;4.60;;;9.40;40.30;;;;;;4973177;28;20435;-70
2023/02/08 14:56:04;;;;;;;6.13;3.97;;;9.30;40.00;;;;;;4974096;28;20473;-69
2023/02/08 14:58:36;;;;;;;8.20;5.40;;;9.20;42.40;;;;;;4971342;28;20484;-72
2023/02/08 15:01:12;;;;;;;11.10;4.90;;;9.10;42.20;;;;;;4956431;28;20496;-70
2023/02/08 15:03:40;;;;;;;8.90;5.43;;;9.10;42.70;;;;;;4973827;28;20429;-70
2023/02/08 15:06:20;;;;;;;9.27;5.97;;;9.00;43.20;;;;;;4968708;28;20452;-70